Ali Curung Tennant Creek, Australia
Current Conditions -  °F | °C
As of 6:00 AM on Saturday 25 Oct 2014 (Local Time) from YTNK Reporting Station
Clear Clear  
Wind Chill: 77°   Ceiling: Unl
Heat Index: 78°   Visibility: 6mi
Dew Point: 50°   Wind: 8mph
Humidity: 39%   Direction: 350°N
Pressure: 30.03"   Gusts: NA
Location:  21.02°S, 134.4°E
Report Text: YTNK 242100Z AUTO 35007KT 9999 // NCD 25/10 Q1017
Loading
Personal Weather Stations






























Interactive Weather Map
Tropical Storm Tracking
New forecast layout! Learn more

10-Day Weather Forecast

Advertisements
Track Severe Weather on mobile